createdAt,value
2022-08-10T00:04:54.234Z,99924.66
2022-08-10T00:09:57.317Z,99915.19
2022-08-10T00:15:00.803Z,99913.13
2022-08-10T00:20:08.743Z,99909.13
2022-08-10T00:25:11.951Z,99901.72
2022-08-10T00:30:14.801Z,99915.97
2022-08-10T00:35:17.637Z,99914.97
2022-08-10T00:40:37.216Z,99910.88
2022-08-10T00:45:40.896Z,99911.84
2022-08-10T00:50:43.800Z,99905.78
2022-08-10T00:57:12.823Z,99911.00
2022-08-10T01:01:11.003Z,99915.47
2022-08-10T01:07:06.166Z,99912.78
2022-08-10T01:12:38.517Z,99916.03
2022-08-10T01:17:57.284Z,99910.59
2022-08-10T01:23:29.081Z,99907.59
2022-08-10T01:28:56.193Z,99908.84
2022-08-10T01:34:04.110Z,99905.88
2022-08-10T01:39:08.095Z,99904.66
2022-08-10T01:44:20.018Z,99917.13
2022-08-10T01:49:24.264Z,99917.44
2022-08-10T01:54:28.028Z,99917.03
2022-08-10T01:59:36.061Z,99927.56
2022-08-10T02:04:40.568Z,99934.97
2022-08-10T02:09:57.322Z,99930.59
2022-08-10T02:15:05.282Z,99927.00
2022-08-10T02:20:22.872Z,99916.84
2022-08-10T02:25:41.951Z,99923.00
2022-08-10T02:30:48.425Z,99919.03
2022-08-10T02:35:55.317Z,99936.44
2022-08-10T02:42:18.359Z,99927.31
2022-08-10T02:46:30.394Z,99933.38
2022-08-10T02:52:08.658Z,99923.59
2022-08-10T02:57:25.284Z,99926.28
2022-08-10T03:02:46.435Z,99925.03
2022-08-10T03:07:54.955Z,99914.06
2022-08-10T03:13:02.739Z,99928.06
2022-08-10T03:18:06.299Z,99921.94
2022-08-10T03:23:15.196Z,99926.91
2022-08-10T03:28:20.676Z,99927.66
2022-08-10T03:33:27.886Z,99941.81
2022-08-10T03:38:30.783Z,99952.59
2022-08-10T03:43:34.446Z,99942.19
2022-08-10T03:48:49.047Z,99941.66
2022-08-10T03:54:05.734Z,99936.03
2022-08-10T03:59:12.880Z,99933.72
2022-08-10T04:04:22.487Z,99933.72
2022-08-10T04:09:53.491Z,99932.53
2022-08-10T04:14:54.698Z,99940.81
2022-08-10T04:19:58.522Z,99942.63
2022-08-10T04:25:05.187Z,99942.13
2022-08-10T04:30:08.991Z,99934.69
2022-08-10T04:35:12.207Z,99931.53
2022-08-10T04:40:28.424Z,99938.38
2022-08-10T04:45:49.283Z,99929.69
2022-08-10T04:50:54.844Z,99921.38
2022-08-10T04:55:57.634Z,99929.09
2022-08-10T05:01:00.477Z,99926.63
2022-08-10T05:06:03.494Z,99917.66
2022-08-10T05:11:06.334Z,99920.34
2022-08-10T05:16:09.096Z,99916.06
2022-08-10T05:21:52.121Z,99920.09
2022-08-10T05:27:00.320Z,99922.56
2022-08-10T05:32:09.463Z,99928.50
2022-08-10T05:38:09.628Z,99928.84
2022-08-10T05:42:35.932Z,99928.38
2022-08-10T05:48:54.646Z,99943.22
2022-08-10T05:53:59.403Z,99933.50
2022-08-10T05:58:25.757Z,99927.75
2022-08-10T06:03:34.946Z,99922.03
2022-08-10T06:08:39.764Z,99924.34
2022-08-10T06:14:13.100Z,99926.69
2022-08-10T06:19:19.618Z,99927.09
2022-08-10T06:24:25.327Z,99930.63
2022-08-10T06:29:33.742Z,99912.00
2022-08-10T06:34:40.142Z,99910.09
2022-08-10T06:39:43.511Z,99907.78
2022-08-10T06:44:56.345Z,99921.66
2022-08-10T06:50:04.960Z,99914.53
2022-08-10T06:55:16.634Z,99901.00
2022-08-10T07:00:21.878Z,99904.69
2022-08-10T07:05:27.001Z,99892.66
2022-08-10T07:10:45.581Z,99896.50
2022-08-10T07:15:59.517Z,99878.28
2022-08-10T07:21:04.866Z,99874.06
2022-08-10T07:26:10.226Z,99882.94
2022-08-10T07:31:54.958Z,99877.91
2022-08-10T07:36:40.045Z,99880.09
2022-08-10T07:41:43.240Z,99874.84
2022-08-10T07:46:47.996Z,99871.41
2022-08-10T07:51:54.443Z,99859.69
2022-08-10T07:57:02.509Z,99853.38
2022-08-10T08:02:07.084Z,99863.25
2022-08-10T08:07:09.861Z,99856.22
2022-08-10T08:12:13.702Z,99851.84
2022-08-10T08:17:17.243Z,99856.53
2022-08-10T08:24:05.291Z,99841.31
2022-08-10T08:27:47.901Z,99844.56
2022-08-10T08:33:00.238Z,99841.00
2022-08-10T08:38:32.361Z,99837.75
2022-08-10T08:43:58.823Z,99847.38
2022-08-10T08:49:09.530Z,99845.06
2022-08-10T08:54:15.299Z,99839.69
2022-08-10T08:59:51.541Z,99838.25
2022-08-10T09:05:00.362Z,99835.81
2022-08-10T09:10:27.762Z,99837.31
2022-08-10T09:15:57.423Z,99833.50
2022-08-10T09:21:55.071Z,99828.84
2022-08-10T09:27:13.729Z,99819.28
2022-08-10T09:36:16.275Z,99806.81
2022-08-10T09:38:01.135Z,99818.81
2022-08-10T09:43:25.190Z,99821.34
2022-08-10T09:48:42.248Z,99810.28
2022-08-10T09:53:54.602Z,99815.50
2022-08-10T10:00:00.733Z,99819.38
2022-08-10T10:05:16.726Z,99818.41
2022-08-10T10:10:47.894Z,99815.28
2022-08-10T10:16:03.944Z,99814.28
2022-08-10T10:21:51.346Z,99814.78
2022-08-10T10:27:24.244Z,99816.84
2022-08-10T10:32:38.974Z,99814.44
2022-08-10T10:38:01.275Z,99816.66
2022-08-10T10:43:29.288Z,99809.88
2022-08-10T10:48:53.670Z,99804.88
2022-08-10T10:54:03.446Z,99805.81
2022-08-10T10:59:56.230Z,99809.72
2022-08-10T11:05:16.440Z,99809.13
2022-08-10T11:10:33.405Z,99807.41
2022-08-10T11:15:42.833Z,99815.28
2022-08-10T11:21:16.940Z,99807.69
2022-08-10T11:26:26.742Z,99807.41
2022-08-10T11:31:36.249Z,99810.22
2022-08-10T11:36:41.770Z,99818.63
2022-08-10T11:42:08.884Z,99831.31
2022-08-10T11:47:18.317Z,99819.81
2022-08-10T11:52:29.510Z,99830.19
2022-08-10T11:57:53.069Z,99820.56
2022-08-10T12:03:02.530Z,99828.25
2022-08-10T12:10:04.847Z,99843.31
2022-08-10T12:14:04.287Z,99848.25
2022-08-10T12:19:24.856Z,99856.38
2022-08-10T12:24:46.986Z,99857.06
2022-08-10T12:29:55.883Z,99854.06
2022-08-10T12:35:22.074Z,99860.41
2022-08-10T12:40:35.706Z,99867.78
2022-08-10T12:45:52.036Z,99870.25
2022-08-10T12:51:15.322Z,99878.00
2022-08-10T12:56:30.037Z,99885.00
2022-08-10T13:02:06.919Z,99881.78
2022-08-10T13:06:59.017Z,99883.19
2022-08-10T13:12:36.017Z,99896.44
2022-08-10T13:17:46.853Z,99885.13
2022-08-10T13:22:59.708Z,99888.66
2022-08-10T13:28:37.854Z,99900.59
2022-08-10T13:34:41.246Z,99893.81
2022-08-10T13:38:59.193Z,99898.81
2022-08-10T13:44:02.186Z,99896.84
2022-08-10T13:49:06.309Z,99907.31
2022-08-10T13:54:17.940Z,99896.91
2022-08-10T13:59:22.415Z,99898.75
2022-08-10T14:04:25.419Z,99900.97
2022-08-10T14:09:31.838Z,99891.94
2022-08-10T14:14:34.883Z,99902.44
2022-08-10T14:19:43.752Z,99907.88
2022-08-10T14:24:47.065Z,99889.91
2022-08-10T14:29:55.464Z,99891.00
2022-08-10T14:36:21.109Z,99899.13
2022-08-10T14:40:26.053Z,99906.00
2022-08-10T14:45:33.894Z,99907.75
2022-08-10T14:50:55.609Z,99919.38
2022-08-10T14:56:03.171Z,99927.00
2022-08-10T15:01:07.460Z,99918.84
2022-08-10T15:06:17.933Z,99928.81
2022-08-10T15:12:12.337Z,99927.38
2022-08-10T15:16:44.581Z,99932.13
2022-08-10T15:21:47.527Z,99928.00
2022-08-10T15:27:09.632Z,99938.81
2022-08-10T15:32:37.407Z,99936.66
2022-08-10T15:37:41.619Z,99938.69
2022-08-10T15:42:58.385Z,99935.47
2022-08-10T15:48:04.768Z,99928.88
2022-08-10T15:53:17.077Z,99925.59
2022-08-10T15:58:37.582Z,99932.75
2022-08-10T16:03:54.680Z,99935.50
2022-08-10T16:10:10.792Z,99938.81
2022-08-10T16:14:36.646Z,99936.06
2022-08-10T16:19:49.487Z,99944.47
2022-08-10T16:24:52.473Z,99947.25
2022-08-10T16:30:00.974Z,99948.50
2022-08-10T16:35:09.845Z,99943.44
2022-08-10T16:40:13.871Z,99949.66
2022-08-10T16:45:25.003Z,99947.34
2022-08-10T16:50:42.002Z,99946.81
2022-08-10T16:55:50.969Z,99948.84
2022-08-10T17:00:59.766Z,99941.38
2022-08-10T17:06:10.844Z,99936.41
2022-08-10T17:11:15.815Z,99933.22
2022-08-10T17:16:18.636Z,99939.34
2022-08-10T17:21:23.503Z,99940.47
2022-08-10T17:26:37.011Z,99943.16
2022-08-10T17:31:54.828Z,99945.00
2022-08-10T17:37:02.729Z,99943.28
2022-08-10T17:42:06.105Z,99955.19
2022-08-10T17:47:11.281Z,99951.94
2022-08-10T17:52:16.951Z,99946.13
2022-08-10T17:57:21.564Z,99941.88
2022-08-10T18:02:28.422Z,99944.56
2022-08-10T18:07:35.803Z,99946.38
2022-08-10T18:12:48.398Z,99950.00
2022-08-10T18:17:59.079Z,99943.25
2022-08-10T18:23:04.022Z,99934.00
2022-08-10T18:28:12.133Z,99939.13
2022-08-10T18:33:16.356Z,99938.41
2022-08-10T18:38:19.734Z,99934.19
2022-08-10T18:44:05.546Z,99926.63
2022-08-10T18:48:57.031Z,99925.94
2022-08-10T18:54:05.690Z,99926.03
2022-08-10T18:59:39.239Z,99927.78
2022-08-10T19:05:30.137Z,99933.84
2022-08-10T19:11:01.528Z,99932.16
2022-08-10T19:16:15.098Z,99931.41
2022-08-10T19:21:40.237Z,99926.28
2022-08-10T19:27:04.488Z,99930.69
2022-08-10T19:32:18.678Z,99923.88
2022-08-10T19:38:00.743Z,99917.94
2022-08-10T19:44:00.680Z,99924.00
2022-08-10T19:48:54.052Z,99921.44
2022-08-10T19:54:02.986Z,99919.78
2022-08-10T19:59:11.346Z,99921.56
2022-08-10T20:04:20.398Z,99900.19
2022-08-10T20:09:35.034Z,99925.13
2022-08-10T20:14:53.342Z,99923.50
2022-08-10T20:19:59.409Z,99925.28
2022-08-10T20:25:14.010Z,99919.34
2022-08-10T20:30:17.605Z,99910.03
2022-08-10T20:35:49.128Z,99917.72
2022-08-10T20:41:27.505Z,99927.22
2022-08-10T20:46:34.507Z,99923.91
2022-08-10T20:52:00.463Z,99924.88
2022-08-10T20:57:54.829Z,99929.28
2022-08-10T21:03:21.015Z,99937.06
2022-08-10T21:08:49.324Z,99940.59
2022-08-10T21:14:19.162Z,99946.69
2022-08-10T21:19:55.596Z,99950.09
2022-08-10T21:25:04.050Z,99949.22
2022-08-10T21:30:16.633Z,99958.69
2022-08-10T21:35:41.866Z,99942.41
2022-08-10T21:41:18.142Z,99970.75
2022-08-10T21:47:04.770Z,99969.09
2022-08-10T21:52:36.940Z,99970.84
2022-08-10T21:58:06.705Z,99969.16
2022-08-10T22:03:39.411Z,99964.03
2022-08-10T22:09:04.309Z,99964.09
2022-08-10T22:14:33.773Z,99982.97
2022-08-10T22:20:03.077Z,99979.56
2022-08-10T22:25:52.075Z,99979.59
2022-08-10T22:37:12.653Z,99982.25
2022-08-10T22:42:57.968Z,99982.25
2022-08-10T22:48:23.873Z,99978.75
2022-08-10T22:53:56.493Z,99974.41
2022-08-10T22:58:59.240Z,99979.50
2022-08-10T23:04:08.972Z,99974.34
2022-08-10T23:09:14.754Z,99988.94
2022-08-10T23:14:18.962Z,99995.78
2022-08-10T23:19:26.288Z,99962.31
2022-08-10T23:24:39.125Z,99999.94
2022-08-10T23:30:09.873Z,99992.94
2022-08-10T23:36:31.736Z,100000.56
2022-08-10T23:40:36.806Z,99998.72
2022-08-10T23:45:53.756Z,99989.03
2022-08-10T23:51:02.728Z,100004.06
2022-08-10T23:56:09.788Z,99996.63
